createdAt,value
2023-03-08T00:00:42.071Z,93724.44
2023-03-08T00:03:14.447Z,93727.09
2023-03-08T00:05:44.203Z,93731.13
2023-03-08T00:08:12.294Z,93720.69
2023-03-08T00:10:40.212Z,93721.63
2023-03-08T00:13:08.083Z,93732.91
2023-03-08T00:15:37.770Z,93741.56
2023-03-08T00:18:06.251Z,93741.69
2023-03-08T00:20:34.515Z,93731.38
2023-03-08T00:23:03.809Z,93736.97
2023-03-08T00:25:31.771Z,93717.53
2023-03-08T00:27:59.638Z,93719.03
2023-03-08T00:30:27.630Z,93738.34
2023-03-08T00:32:55.572Z,93735.41
2023-03-08T00:35:23.503Z,93730.22
2023-03-08T00:37:51.745Z,93723.47
2023-03-08T00:40:20.985Z,93740.88
2023-03-08T00:42:48.838Z,93733.31
2023-03-08T00:45:16.972Z,93726.13
2023-03-08T00:47:44.884Z,93725.19
2023-03-08T00:50:13.082Z,93725.63
2023-03-08T00:52:40.967Z,93704.03
2023-03-08T00:55:10.022Z,93709.31
2023-03-08T00:57:39.236Z,93722.84
2023-03-08T01:00:10.970Z,93724.78
2023-03-08T01:02:41.221Z,93734.94
2023-03-08T01:05:10.769Z,93736.75
2023-03-08T01:07:38.678Z,93741.84
2023-03-08T01:10:07.325Z,93726.69
2023-03-08T01:12:35.544Z,93731.38
2023-03-08T01:15:06.155Z,93739.56
2023-03-08T01:17:34.153Z,93735.13
2023-03-08T01:20:02.077Z,93727.09
2023-03-08T01:22:30.109Z,93729.16
2023-03-08T01:24:58.172Z,93726.97
2023-03-08T01:27:26.073Z,93724.09
2023-03-08T01:29:53.904Z,93703.88
2023-03-08T01:32:23.221Z,93723.13
2023-03-08T01:34:51.326Z,93735.91
2023-03-08T01:37:19.216Z,93728.41
2023-03-08T01:39:47.197Z,93746.59
2023-03-08T01:42:15.081Z,93750.16
2023-03-08T01:44:51.812Z,93748.88
2023-03-08T01:47:21.239Z,93735.81
2023-03-08T01:49:51.866Z,93731.13
2023-03-08T01:52:22.860Z,93755.03
2023-03-08T01:54:54.554Z,93741.50
2023-03-08T01:57:26.252Z,93726.81
2023-03-08T01:59:58.541Z,93749.53
2023-03-08T02:02:31.116Z,93739.75
2023-03-08T02:05:00.405Z,93739.72
2023-03-08T02:07:28.366Z,93734.25
2023-03-08T02:09:56.557Z,93744.09
2023-03-08T02:12:24.795Z,93733.44
2023-03-08T02:14:52.681Z,93741.00
2023-03-08T02:17:20.746Z,93750.88
2023-03-08T02:19:53.779Z,93746.66
2023-03-08T02:22:23.310Z,93725.41
2023-03-08T02:24:52.549Z,93749.56
2023-03-08T02:27:25.228Z,93748.31
2023-03-08T02:29:53.469Z,93710.59
2023-03-08T02:32:21.584Z,93735.09
2023-03-08T02:34:49.482Z,93744.28
2023-03-08T02:37:17.407Z,93748.13
2023-03-08T02:39:45.345Z,93773.75
2023-03-08T02:42:14.631Z,93762.00
2023-03-08T02:44:42.513Z,93738.59
2023-03-08T02:47:11.034Z,93777.94
2023-03-08T02:49:38.863Z,93759.56
2023-03-08T02:52:06.982Z,93755.69
2023-03-08T02:54:34.991Z,93757.97
2023-03-08T02:57:02.955Z,93778.13
2023-03-08T02:59:32.618Z,93756.38
2023-03-08T03:02:00.822Z,93765.88
2023-03-08T03:04:31.312Z,93768.09
2023-03-08T03:07:00.166Z,93769.72
2023-03-08T03:09:28.402Z,93762.63
2023-03-08T03:11:56.524Z,93764.41
2023-03-08T03:14:24.422Z,93784.69
2023-03-08T03:16:53.679Z,93776.00
2023-03-08T03:19:21.897Z,93765.53
2023-03-08T03:21:49.929Z,93740.44
2023-03-08T03:24:17.786Z,93770.50
2023-03-08T03:26:45.703Z,93753.47
2023-03-08T03:29:13.706Z,93780.84
2023-03-08T03:31:41.637Z,93785.97
2023-03-08T03:34:10.904Z,93770.88
2023-03-08T03:36:38.812Z,93780.97
2023-03-08T03:39:06.782Z,93784.53
2023-03-08T03:41:34.689Z,93798.38
2023-03-08T03:44:03.801Z,93774.84
2023-03-08T03:46:31.849Z,93794.53
2023-03-08T03:49:00.002Z,93810.28
2023-03-08T03:51:29.267Z,93792.72
2023-03-08T03:53:58.606Z,93797.59
2023-03-08T03:56:28.405Z,93781.44
2023-03-08T03:58:56.377Z,93792.72
2023-03-08T04:01:26.512Z,93777.59
2023-03-08T04:03:55.808Z,93807.06
2023-03-08T04:06:25.712Z,93805.31
2023-03-08T04:08:56.417Z,93801.91
2023-03-08T04:11:27.054Z,93804.50
2023-03-08T04:13:55.133Z,93767.44
2023-03-08T04:16:29.181Z,93806.13
2023-03-08T04:18:59.601Z,93805.63
2023-03-08T04:21:28.286Z,93809.66
2023-03-08T04:23:59.508Z,93817.06
2023-03-08T04:26:28.979Z,93806.88
2023-03-08T04:28:56.960Z,93817.22
2023-03-08T04:31:26.467Z,93791.28
2023-03-08T04:33:54.894Z,93817.06
2023-03-08T04:36:23.348Z,93805.63
2023-03-08T04:38:52.479Z,93793.53
2023-03-08T04:41:22.993Z,93800.31
2023-03-08T04:43:52.937Z,93793.56
2023-03-08T04:46:22.237Z,93806.75
2023-03-08T04:48:55.977Z,93783.72
2023-03-08T04:51:26.342Z,93794.19
2023-03-08T04:53:54.492Z,93797.59
2023-03-08T04:56:23.800Z,93780.31
2023-03-08T04:58:51.659Z,93822.09
2023-03-08T05:01:22.306Z,93828.53
2023-03-08T05:04:00.785Z,93814.50
2023-03-08T05:06:29.116Z,93823.84
2023-03-08T05:08:57.393Z,93826.72
2023-03-08T05:11:28.645Z,93838.81
2023-03-08T05:13:58.094Z,93836.88
2023-03-08T05:16:26.711Z,93827.53
2023-03-08T05:18:54.710Z,93843.34
2023-03-08T05:21:23.947Z,93843.97
2023-03-08T05:23:51.869Z,93839.31
2023-03-08T05:26:20.016Z,93861.22
2023-03-08T05:28:49.270Z,93817.22
2023-03-08T05:31:18.560Z,93870.38
2023-03-08T05:33:48.109Z,93872.66
2023-03-08T05:36:16.742Z,93874.41
2023-03-08T05:38:45.097Z,93871.38
2023-03-08T05:41:15.220Z,93874.59
2023-03-08T05:43:43.416Z,93881.38
2023-03-08T05:46:15.265Z,93865.56
2023-03-08T05:48:43.629Z,93881.66
2023-03-08T05:51:13.962Z,93889.75
2023-03-08T05:53:41.972Z,93868.47
2023-03-08T05:56:11.371Z,93887.53
2023-03-08T05:58:41.460Z,93893.78
2023-03-08T06:01:17.537Z,93890.59
2023-03-08T06:03:45.598Z,93893.00
2023-03-08T06:06:13.928Z,93894.75
2023-03-08T06:08:42.507Z,93909.75
2023-03-08T06:11:11.332Z,93908.63
2023-03-08T06:13:39.218Z,93913.28
2023-03-08T06:16:07.695Z,93910.06
2023-03-08T06:18:38.154Z,93910.72
2023-03-08T06:21:07.893Z,93917.50
2023-03-08T06:23:37.163Z,93918.47
2023-03-08T06:26:06.160Z,93912.03
2023-03-08T06:28:34.607Z,93918.66
2023-03-08T06:31:02.635Z,93925.59
2023-03-08T06:33:32.714Z,93921.09
2023-03-08T06:36:04.417Z,93928.16
2023-03-08T06:38:34.267Z,93929.59
2023-03-08T06:41:03.089Z,93929.78
2023-03-08T06:43:31.430Z,93934.44
2023-03-08T06:45:59.563Z,93935.56
2023-03-08T06:48:27.461Z,93936.22
2023-03-08T06:50:55.351Z,93930.72
2023-03-08T06:53:24.632Z,93947.66
2023-03-08T06:55:52.532Z,93945.88
2023-03-08T06:58:20.619Z,93953.13
2023-03-08T07:00:48.551Z,93959.06
2023-03-08T07:03:16.696Z,93957.59
2023-03-08T07:05:44.612Z,93970.66
2023-03-08T07:08:12.544Z,93966.72
2023-03-08T07:10:42.204Z,93974.75
2023-03-08T07:13:10.107Z,93973.53
2023-03-08T07:15:40.917Z,93969.06
2023-03-08T07:18:08.774Z,93970.03
2023-03-08T07:20:36.832Z,93975.66
2023-03-08T07:23:04.771Z,93968.88
2023-03-08T07:25:33.851Z,93975.59
2023-03-08T07:28:03.386Z,93978.00
2023-03-08T07:30:31.348Z,93969.44
2023-03-08T07:32:59.341Z,93972.16
2023-03-08T07:35:27.251Z,93971.28
2023-03-08T07:37:55.198Z,93960.88
2023-03-08T07:40:23.252Z,93952.56
2023-03-08T07:42:52.111Z,93971.44
2023-03-08T07:45:22.867Z,93979.09
2023-03-08T07:47:51.589Z,93956.44
2023-03-08T07:50:19.712Z,93970.25
2023-03-08T07:52:47.801Z,93972.50
2023-03-08T07:55:15.878Z,93968.09
2023-03-08T07:57:43.841Z,93978.69
2023-03-08T08:00:12.876Z,93986.88
2023-03-08T08:02:42.240Z,93971.69
2023-03-08T08:05:10.641Z,93978.69
2023-03-08T08:07:38.534Z,93961.25
2023-03-08T08:10:08.329Z,93967.13
2023-03-08T08:12:36.226Z,93976.09
2023-03-08T08:15:04.337Z,93978.31
2023-03-08T08:17:32.263Z,93981.06
2023-03-08T08:20:01.833Z,93982.97
2023-03-08T08:22:29.740Z,93975.09
2023-03-08T08:24:57.637Z,93982.38
2023-03-08T08:27:25.516Z,93975.22
2023-03-08T08:29:53.387Z,93988.06
2023-03-08T08:32:21.341Z,93994.66
2023-03-08T08:34:49.191Z,93987.13
2023-03-08T08:37:18.704Z,93973.41
2023-03-08T08:39:46.609Z,93987.50
2023-03-08T08:42:14.529Z,93988.75
2023-03-08T08:44:42.610Z,93976.59
2023-03-08T08:47:10.542Z,93989.19
2023-03-08T08:49:38.500Z,93980.31
2023-03-08T08:52:06.888Z,93982.25
2023-03-08T08:54:39.945Z,93977.66
2023-03-08T08:57:08.256Z,93968.31
2023-03-08T08:59:36.413Z,93982.75
2023-03-08T09:02:05.752Z,93988.75
2023-03-08T09:04:33.903Z,93979.34
2023-03-08T09:07:02.122Z,93975.06
2023-03-08T09:09:30.051Z,93965.53
2023-03-08T09:11:59.330Z,93981.78
2023-03-08T09:14:27.286Z,93975.09
2023-03-08T09:16:55.257Z,93977.94
2023-03-08T09:19:23.279Z,93980.09
2023-03-08T09:21:51.259Z,93973.69
2023-03-08T09:24:19.215Z,93970.88
2023-03-08T09:26:47.190Z,93971.50
2023-03-08T09:29:18.005Z,93959.72
2023-03-08T09:31:46.392Z,93966.19
2023-03-08T09:34:15.566Z,93962.38
2023-03-08T09:36:48.005Z,93960.13
2023-03-08T09:39:15.842Z,93954.94
2023-03-08T09:41:50.525Z,93936.31
2023-03-08T09:44:47.233Z,93950.94
2023-03-08T09:47:28.254Z,93918.44
2023-03-08T09:50:02.869Z,93946.81
2023-03-08T09:52:38.365Z,93936.56
2023-03-08T09:55:13.743Z,93956.63
2023-03-08T09:57:47.296Z,93952.34
2023-03-08T10:00:22.434Z,93927.50
2023-03-08T10:03:02.912Z,93944.75
2023-03-08T10:05:36.726Z,93935.69
2023-03-08T10:08:13.333Z,93940.09
2023-03-08T10:10:49.754Z,93938.59
2023-03-08T10:13:30.164Z,93938.50
2023-03-08T10:16:07.697Z,93927.78
2023-03-08T10:18:41.726Z,93930.44
2023-03-08T10:21:13.642Z,93931.47
2023-03-08T10:23:42.576Z,93920.53
2023-03-08T10:26:13.280Z,93897.56
2023-03-08T10:28:41.232Z,93910.06
2023-03-08T10:31:22.472Z,93925.09
2023-03-08T10:33:55.088Z,93909.50
2023-03-08T10:36:25.435Z,93928.69
2023-03-08T10:39:12.785Z,93897.31
2023-03-08T10:41:44.612Z,93917.41
2023-03-08T10:44:16.850Z,93914.19
2023-03-08T10:46:51.358Z,93911.56
2023-03-08T10:49:21.042Z,93904.84
2023-03-08T10:52:00.148Z,93896.84
2023-03-08T10:54:29.356Z,93871.34
2023-03-08T10:57:00.212Z,93896.28
2023-03-08T10:59:32.639Z,93893.16
2023-03-08T11:02:04.401Z,93878.69
2023-03-08T11:04:32.810Z,93881.53
2023-03-08T11:07:12.821Z,93879.13
2023-03-08T11:09:40.732Z,93878.66
2023-03-08T11:12:23.794Z,93879.09
2023-03-08T11:14:52.236Z,93872.34
2023-03-08T11:17:26.659Z,93879.31
2023-03-08T11:20:11.180Z,93872.09
2023-03-08T11:22:51.200Z,93871.97
2023-03-08T11:25:45.479Z,93852.56
2023-03-08T11:28:28.047Z,93847.50
2023-03-08T11:31:06.972Z,93842.53
2023-03-08T11:33:55.869Z,93829.66
2023-03-08T11:36:29.931Z,93804.69
2023-03-08T11:39:00.942Z,93826.34
2023-03-08T11:41:38.308Z,93825.97
2023-03-08T11:44:43.356Z,93813.28
2023-03-08T11:47:46.924Z,93827.75
2023-03-08T11:50:22.952Z,93816.00
2023-03-08T11:53:03.308Z,93822.22
2023-03-08T11:55:47.149Z,93815.63
2023-03-08T11:58:22.512Z,93806.16
2023-03-08T12:00:54.624Z,93799.09
2023-03-08T12:03:26.482Z,93804.44
2023-03-08T12:05:59.144Z,93801.53
2023-03-08T12:08:32.700Z,93803.16
2023-03-08T12:11:04.831Z,93803.78
2023-03-08T12:13:36.036Z,93791.09
2023-03-08T12:16:12.149Z,93804.03
2023-03-08T12:18:46.907Z,93790.50
2023-03-08T12:21:31.507Z,93799.94
2023-03-08T12:24:12.966Z,93781.59
2023-03-08T12:26:44.892Z,93796.03
2023-03-08T12:29:21.732Z,93794.97
2023-03-08T12:31:52.013Z,93814.28
2023-03-08T12:34:28.941Z,93799.75
2023-03-08T12:36:58.322Z,93807.78
2023-03-08T12:39:29.934Z,93805.00
2023-03-08T12:42:02.747Z,93770.78
2023-03-08T12:44:32.233Z,93799.63
2023-03-08T12:47:04.305Z,93797.97
2023-03-08T12:49:35.516Z,93790.50
2023-03-08T12:52:07.490Z,93799.09
2023-03-08T12:54:36.758Z,93769.34
2023-03-08T12:57:17.242Z,93785.63
2023-03-08T12:59:46.846Z,93790.78
2023-03-08T13:02:28.531Z,93787.34
2023-03-08T13:05:04.909Z,93778.94
2023-03-08T13:07:39.542Z,93774.22
2023-03-08T13:10:19.869Z,93761.81
2023-03-08T13:13:31.132Z,93777.59
2023-03-08T13:16:21.460Z,93771.38
2023-03-08T13:18:54.989Z,93775.41
2023-03-08T13:21:34.546Z,93748.09
2023-03-08T13:24:11.260Z,93739.53
2023-03-08T13:26:52.132Z,93757.00
2023-03-08T13:29:22.318Z,93743.84
2023-03-08T13:31:51.372Z,93765.72
2023-03-08T13:34:26.471Z,93759.16
2023-03-08T13:36:54.927Z,93743.38
2023-03-08T13:39:28.986Z,93751.34
2023-03-08T13:42:07.792Z,93758.53
2023-03-08T13:44:35.749Z,93758.28
2023-03-08T13:47:06.075Z,93754.72
2023-03-08T13:49:37.496Z,93759.59
2023-03-08T13:52:15.136Z,93739.03
2023-03-08T13:54:47.906Z,93726.75
2023-03-08T13:57:22.813Z,93752.72
2023-03-08T13:59:52.173Z,93737.84
2023-03-08T14:02:22.661Z,93741.22
2023-03-08T14:04:50.745Z,93747.69
2023-03-08T14:07:23.181Z,93738.63
2023-03-08T14:09:52.649Z,93729.03
2023-03-08T14:12:23.918Z,93741.97
2023-03-08T14:14:54.763Z,93742.00
2023-03-08T14:17:24.784Z,93746.97
2023-03-08T14:19:57.575Z,93743.34
2023-03-08T14:22:38.534Z,93752.75
2023-03-08T14:25:23.368Z,93743.91
2023-03-08T14:27:51.697Z,93753.09
2023-03-08T14:30:21.754Z,93744.19
2023-03-08T14:33:02.384Z,93740.41
2023-03-08T14:35:33.930Z,93741.91
2023-03-08T14:38:02.445Z,93743.31
2023-03-08T14:40:36.544Z,93745.84
2023-03-08T14:43:06.394Z,93752.69
2023-03-08T14:45:37.719Z,93744.25
2023-03-08T14:48:29.935Z,93749.50
2023-03-08T14:50:59.937Z,93751.09
2023-03-08T14:53:33.517Z,93758.66
2023-03-08T14:56:06.391Z,93756.22
2023-03-08T14:58:39.131Z,93760.69
2023-03-08T15:01:07.168Z,93759.34
2023-03-08T15:03:35.427Z,93750.97
2023-03-08T15:06:12.614Z,93747.44
2023-03-08T15:08:40.730Z,93756.53
2023-03-08T15:11:10.213Z,93748.63
2023-03-08T15:13:38.137Z,93759.97
2023-03-08T15:16:07.792Z,93756.84
2023-03-08T15:18:35.738Z,93737.66
2023-03-08T15:21:04.115Z,93756.66
2023-03-08T15:23:35.044Z,93753.72
2023-03-08T15:26:03.998Z,93756.94
2023-03-08T15:28:33.780Z,93764.91
2023-03-08T15:31:01.754Z,93765.66
2023-03-08T15:33:29.737Z,93778.19
2023-03-08T15:35:59.405Z,93748.31
2023-03-08T15:38:27.620Z,93761.69
2023-03-08T15:40:55.530Z,93770.88
2023-03-08T15:43:23.521Z,93767.88
2023-03-08T15:45:52.851Z,93761.75
2023-03-08T15:48:20.955Z,93768.28
2023-03-08T15:50:49.533Z,93763.09
2023-03-08T15:53:29.605Z,93754.56
2023-03-08T15:56:02.808Z,93743.78
2023-03-08T15:58:30.733Z,93752.81
2023-03-08T16:01:00.173Z,93751.44
2023-03-08T16:03:31.210Z,93753.91
2023-03-08T16:05:59.925Z,93757.97
2023-03-08T16:08:28.865Z,93750.63
2023-03-08T16:11:00.328Z,93720.75
2023-03-08T16:13:28.329Z,93775.47
2023-03-08T16:16:00.937Z,93755.56
2023-03-08T16:18:32.651Z,93765.69
2023-03-08T16:21:00.845Z,93762.00
2023-03-08T16:23:29.035Z,93744.28
2023-03-08T16:26:14.231Z,93739.78
2023-03-08T16:28:45.181Z,93766.38
2023-03-08T16:31:16.516Z,93763.59
2023-03-08T16:33:45.120Z,93737.19
2023-03-08T16:36:14.170Z,93767.84
2023-03-08T16:38:44.860Z,93769.66
2023-03-08T16:41:14.606Z,93769.66
2023-03-08T16:43:47.754Z,93779.28
2023-03-08T16:46:19.773Z,93771.72
2023-03-08T16:48:50.082Z,93776.34
2023-03-08T16:51:20.242Z,93772.78
2023-03-08T16:53:49.310Z,93779.41
2023-03-08T16:56:21.710Z,93796.09
2023-03-08T16:58:50.158Z,93783.97
2023-03-08T17:01:20.644Z,93802.16
2023-03-08T17:03:49.316Z,93784.34
2023-03-08T17:06:20.163Z,93799.34
2023-03-08T17:08:49.370Z,93792.50
2023-03-08T17:11:18.479Z,93777.88
2023-03-08T17:13:51.210Z,93794.28
2023-03-08T17:16:22.687Z,93790.09
2023-03-08T17:18:52.094Z,93802.88
2023-03-08T17:21:21.107Z,93797.09
2023-03-08T17:23:50.788Z,93814.72
2023-03-08T17:26:20.703Z,93801.75
2023-03-08T17:28:50.545Z,93806.59
2023-03-08T17:31:21.975Z,93836.06
2023-03-08T17:33:51.078Z,93817.28
2023-03-08T17:36:19.981Z,93799.91
2023-03-08T17:38:48.132Z,93854.25
2023-03-08T17:41:17.617Z,93865.13
2023-03-08T17:43:45.951Z,93832.66
2023-03-08T17:46:15.368Z,93846.31
2023-03-08T17:48:45.364Z,93852.69
2023-03-08T17:51:18.210Z,93859.50
2023-03-08T17:53:47.494Z,93874.94
2023-03-08T17:56:17.444Z,93850.66
2023-03-08T17:58:48.132Z,93860.31
2023-03-08T18:01:17.937Z,93865.72
2023-03-08T18:03:48.092Z,93874.28
2023-03-08T18:06:21.129Z,93882.50
2023-03-08T18:08:49.341Z,93895.94
2023-03-08T18:11:17.324Z,93878.66
2023-03-08T18:13:47.669Z,93889.50
2023-03-08T18:16:17.431Z,93894.13
2023-03-08T18:18:49.695Z,93902.13
2023-03-08T18:21:22.295Z,93884.91
2023-03-08T18:23:50.790Z,93905.13
2023-03-08T18:26:19.354Z,93913.56
2023-03-08T18:28:51.019Z,93909.75
2023-03-08T18:31:23.537Z,93897.50
2023-03-08T18:33:55.192Z,93876.84
2023-03-08T18:36:24.329Z,93872.63
2023-03-08T18:38:52.640Z,93884.78
2023-03-08T18:41:22.732Z,93891.81
2023-03-08T18:43:51.518Z,93890.81
2023-03-08T18:46:19.788Z,93869.75
2023-03-08T18:48:52.142Z,93898.78
2023-03-08T18:54:35.112Z,93869.06
2023-03-08T18:57:03.389Z,93876.44
2023-03-08T18:59:33.644Z,93877.22
2023-03-08T19:02:02.253Z,93886.81
2023-03-08T19:04:30.228Z,93905.66
2023-03-08T19:07:01.363Z,93890.19
2023-03-08T19:09:29.498Z,93879.59
2023-03-08T19:11:57.497Z,93876.66
2023-03-08T19:14:25.598Z,93902.38
2023-03-08T19:16:53.574Z,93892.66
2023-03-08T19:19:21.604Z,93913.91
2023-03-08T19:21:50.205Z,93877.06
2023-03-08T19:24:21.594Z,93918.22
2023-03-08T19:26:52.848Z,93914.00
2023-03-08T19:29:22.456Z,93863.75
2023-03-08T19:31:52.825Z,93916.00
2023-03-08T19:34:23.274Z,93917.59
2023-03-08T19:36:51.693Z,93866.63
2023-03-08T19:39:23.350Z,93915.97
2023-03-08T19:41:52.653Z,93865.75
2023-03-08T19:44:22.733Z,93912.31
2023-03-08T19:46:51.180Z,93909.94
2023-03-08T19:49:20.985Z,93926.94
2023-03-08T19:51:49.731Z,93916.31
2023-03-08T19:54:18.251Z,93917.09
2023-03-08T19:56:48.888Z,93917.50
2023-03-08T19:59:18.953Z,93936.13
2023-03-08T20:01:47.526Z,93941.56
2023-03-08T20:04:35.488Z,93916.06
2023-03-08T20:07:05.202Z,93909.88
2023-03-08T20:09:48.906Z,93909.47
2023-03-08T20:12:21.192Z,93930.19
2023-03-08T20:14:49.557Z,93947.59
2023-03-08T20:17:18.196Z,93933.41
2023-03-08T20:19:47.672Z,93962.09
2023-03-08T20:22:20.801Z,93922.25
2023-03-08T20:24:49.700Z,93920.31
2023-03-08T20:27:19.276Z,93952.00
2023-03-08T20:29:47.468Z,93903.19
2023-03-08T20:32:15.957Z,93904.13
2023-03-08T20:34:44.187Z,93953.94
2023-03-08T20:37:12.337Z,93954.31
2023-03-08T20:39:40.723Z,93935.41
2023-03-08T20:42:08.902Z,93927.00
2023-03-08T20:44:38.620Z,93919.06
2023-03-08T20:47:08.896Z,93888.25
2023-03-08T20:49:37.220Z,93959.28
2023-03-08T20:52:05.726Z,93927.97
2023-03-08T20:54:34.027Z,93915.00
2023-03-08T20:57:02.250Z,93945.19
2023-03-08T20:59:30.540Z,93939.50
2023-03-08T21:02:00.535Z,93878.91
2023-03-08T21:04:28.722Z,93922.94
2023-03-08T21:06:56.993Z,93930.34
2023-03-08T21:09:27.929Z,93927.88
2023-03-08T21:11:56.224Z,93944.38
2023-03-08T21:14:25.293Z,93931.44
2023-03-08T21:16:53.363Z,93922.91
2023-03-08T21:19:26.724Z,93943.78
2023-03-08T21:21:55.248Z,93912.28
2023-03-08T21:24:23.764Z,93925.84
2023-03-08T21:26:52.200Z,93939.53
2023-03-08T21:29:21.748Z,93944.59
2023-03-08T21:31:52.302Z,93942.78
2023-03-08T21:34:23.725Z,93919.72
2023-03-08T21:36:52.198Z,93914.72
2023-03-08T21:39:20.567Z,93925.25
2023-03-08T21:41:50.868Z,93937.31
2023-03-08T21:44:21.185Z,93935.75
2023-03-08T21:46:51.628Z,93920.66
2023-03-08T21:49:23.385Z,93907.69
2023-03-08T21:51:52.742Z,93873.94
2023-03-08T21:54:22.081Z,93913.94
2023-03-08T21:56:53.236Z,93901.44
2023-03-08T21:59:24.164Z,93912.53
2023-03-08T22:01:54.140Z,93939.16
2023-03-08T22:04:24.066Z,93933.53
2023-03-08T22:06:57.906Z,93935.03
2023-03-08T22:09:28.186Z,93908.13
2023-03-08T22:11:57.079Z,93908.31
2023-03-08T22:14:25.366Z,93921.00
2023-03-08T22:16:54.891Z,93930.53
2023-03-08T22:19:24.612Z,93931.41
2023-03-08T22:21:52.692Z,93923.13
2023-03-08T22:24:20.752Z,93926.75
2023-03-08T22:26:48.754Z,93907.94
2023-03-08T22:29:16.748Z,93914.81
2023-03-08T22:34:39.062Z,93930.78
2023-03-08T22:37:07.264Z,93930.03
2023-03-08T22:39:35.219Z,93916.50
2023-03-08T22:42:03.575Z,93933.13
2023-03-08T22:44:31.942Z,93936.16
2023-03-08T22:47:00.181Z,93920.88
2023-03-08T22:49:28.203Z,93907.63
2023-03-08T22:51:57.509Z,93925.25
2023-03-08T22:54:26.267Z,93931.19
2023-03-08T22:56:54.803Z,93925.38
2023-03-08T22:59:22.710Z,93922.16
2023-03-08T23:01:50.699Z,93910.81
2023-03-08T23:04:18.769Z,93925.66
2023-03-08T23:06:47.653Z,93913.16
2023-03-08T23:09:17.886Z,93915.28
2023-03-08T23:11:46.690Z,93918.22
2023-03-08T23:14:15.069Z,93912.63
2023-03-08T23:16:44.897Z,93910.03
2023-03-08T23:19:14.701Z,93924.69
2023-03-08T23:21:44.584Z,93914.31
2023-03-08T23:24:13.465Z,93917.25
2023-03-08T23:26:43.183Z,93908.97
2023-03-08T23:29:11.334Z,93913.28
2023-03-08T23:31:40.668Z,93917.03
2023-03-08T23:34:08.626Z,93912.53
2023-03-08T23:36:36.457Z,93900.47
2023-03-08T23:39:04.804Z,93925.81
2023-03-08T23:41:33.800Z,93918.59
2023-03-08T23:44:03.929Z,93911.81
2023-03-08T23:46:32.041Z,93918.06
2023-03-08T23:49:01.500Z,93910.97
2023-03-08T23:51:31.315Z,93909.94
2023-03-08T23:54:01.756Z,93911.91
2023-03-08T23:56:37.524Z,93908.56
2023-03-08T23:59:11.234Z,93918.63
